Time;durP1;ratioP1;P1;durP2;ratioP2;P2;SDS_P1;SDS_P2;PMS_P1;PMS_P2;Temp;Humidity;BMP_temperature;BMP_pressure;BME280_temperature;BME280_humidity;BME280_pressure;Samples;Min_cycle;Max_cycle;Signal;HPM_P1;HPM_P2
2022/06/04 00:01:43;;;;;;;12.87;3.50;;;13.70;99.90;;;;;;4984470;28;20270;-75
2022/06/04 00:04:27;;;;;;;3.77;3.17;;;13.70;99.90;;;;;;4991200;28;20213;-75
2022/06/04 00:07:12;;;;;;;3.97;3.20;;;13.70;99.90;;;;;;4989714;28;20259;-75
2022/06/04 00:16:22;;;;;;;4.83;2.90;;;13.50;99.90;;;;;;4985594;28;20194;-75
2022/06/04 00:19:07;;;;;;;6.13;3.07;;;13.40;99.90;;;;;;4986512;28;20193;-75
2022/06/04 00:21:51;;;;;;;2.90;2.57;;;13.40;99.90;;;;;;4985630;28;20235;-75
2022/06/04 00:24:36;;;;;;;4.90;2.50;;;13.40;99.90;;;;;;4996510;28;20188;-73
2022/06/04 00:27:21;;;;;;;2.83;2.57;;;13.30;99.90;;;;;;4988308;28;20250;-76
2022/06/04 00:30:06;;;;;;;3.97;2.67;;;13.30;99.90;;;;;;4984038;28;20196;-74
2022/06/04 00:32:51;;;;;;;4.10;2.80;;;13.20;99.90;;;;;;4980457;28;20244;-75
2022/06/04 00:35:35;;;;;;;6.33;3.27;;;13.20;99.90;;;;;;4988101;28;20208;-74
2022/06/04 00:38:23;;;;;;;3.03;2.67;;;13.20;99.90;;;;;;4986000;28;20260;-74
2022/06/04 00:41:27;;;;;;;3.57;2.70;;;13.20;99.90;;;;;;4986797;28;20217;-75
2022/06/04 00:44:15;;;;;;;8.60;2.93;;;13.20;99.90;;;;;;4990432;28;20208;-75
2022/06/04 00:47:10;;;;;;;6.87;2.70;;;13.10;99.90;;;;;;4988587;28;20181;-75
2022/06/04 00:49:55;;;;;;;6.10;3.73;;;13.00;99.90;;;;;;4988917;28;20201;-74
2022/06/04 00:52:40;;;;;;;3.40;2.73;;;13.00;99.90;;;;;;4987775;28;20215;-75
2022/06/04 00:55:25;;;;;;;5.37;3.40;;;12.90;99.90;;;;;;4991426;28;20188;-75
2022/06/04 00:58:43;;;;;;;8.40;3.50;;;12.90;99.90;;;;;;4988417;28;20241;-73
2022/06/04 01:01:40;;;;;;;5.90;3.27;;;12.90;99.90;;;;;;4971333;28;20260;-74
2022/06/04 01:04:59;;;;;;;7.70;3.60;;;12.90;99.90;;;;;;4984231;28;20212;-76
2022/06/04 01:08:14;;;;;;;6.23;3.50;;;12.90;99.90;;;;;;4985780;28;20216;-76
2022/06/04 01:11:31;;;;;;;4.17;3.77;;;12.80;99.90;;;;;;4987950;28;20211;-74
2022/06/04 01:14:47;;;;;;;6.97;3.57;;;12.80;99.90;;;;;;4986214;28;20673;-74
2022/06/04 01:17:50;;;;;;;5.23;3.77;;;12.80;99.90;;;;;;4978826;28;20624;-72
2022/06/04 01:20:48;;;;;;;6.17;3.70;;;12.80;99.90;;;;;;4981276;28;20307;-74
2022/06/04 01:24:13;;;;;;;7.87;4.00;;;12.70;99.90;;;;;;4986589;28;20188;-75
2022/06/04 01:27:06;;;;;;;8.23;3.90;;;12.60;99.90;;;;;;4986495;28;20316;-76
2022/06/04 01:30:03;;;;;;;7.23;3.70;;;12.60;99.90;;;;;;4984915;28;20247;-74
2022/06/04 01:33:01;;;;;;;9.30;4.47;;;12.50;99.90;;;;;;4980938;28;20382;-75
2022/06/04 01:35:45;;;;;;;5.07;4.07;;;12.50;99.90;;;;;;4989173;28;20192;-76
2022/06/04 01:38:44;;;;;;;7.73;4.20;;;12.50;99.90;;;;;;4983958;28;20245;-74
2022/06/04 01:41:40;;;;;;;4.87;4.10;;;12.50;99.90;;;;;;4984779;28;20212;-75
2022/06/04 01:44:36;;;;;;;10.23;4.83;;;12.40;99.90;;;;;;4980490;28;20193;-76
2022/06/04 01:47:22;;;;;;;8.13;4.70;;;12.40;99.90;;;;;;4985577;28;20188;-74
2022/06/04 01:50:12;;;;;;;6.83;4.80;;;12.40;99.90;;;;;;4982814;28;20200;-75
2022/06/04 01:52:59;;;;;;;6.17;4.53;;;12.30;99.90;;;;;;4989814;28;20208;-75
2022/06/04 01:55:56;;;;;;;5.73;4.50;;;12.30;99.90;;;;;;4979838;28;20239;-73
2022/06/04 01:58:54;;;;;;;6.73;4.63;;;12.30;99.90;;;;;;4988602;28;20209;-74
2022/06/04 02:01:40;;;;;;;8.00;5.00;;;12.30;99.90;;;;;;4986143;28;20224;-76
2022/06/04 02:04:30;;;;;;;7.20;5.30;;;12.30;99.90;;;;;;4983019;28;20200;-75
2022/06/04 02:07:31;;;;;;;7.90;5.33;;;12.30;99.90;;;;;;4986613;28;20201;-75
2022/06/04 02:10:28;;;;;;;8.97;5.37;;;12.20;99.90;;;;;;4986175;28;20251;-74
2022/06/04 02:13:15;;;;;;;7.43;5.23;;;12.20;99.90;;;;;;4982435;28;20260;-75
2022/06/04 02:16:16;;;;;;;9.27;5.10;;;12.20;99.90;;;;;;4987900;28;20241;-75
2022/06/04 02:19:01;;;;;;;8.07;4.83;;;12.20;99.90;;;;;;4993205;28;20188;-75
2022/06/04 02:21:46;;;;;;;7.20;4.93;;;12.10;99.90;;;;;;4990033;28;20212;-75
2022/06/04 02:24:31;;;;;;;7.70;5.40;;;12.10;99.90;;;;;;4993245;28;20267;-74
2022/06/04 02:27:15;;;;;;;6.97;5.33;;;12.10;99.90;;;;;;4988996;28;20225;-74
2022/06/04 02:30:00;;;;;;;8.97;5.40;;;12.10;99.90;;;;;;4995510;28;20219;-76
2022/06/04 02:33:03;;;;;;;7.20;5.27;;;12.10;99.90;;;;;;4988906;28;20287;-75
2022/06/04 02:35:58;;;;;;;8.27;5.40;;;12.20;99.90;;;;;;4988216;28;20237;-74
2022/06/04 02:39:11;;;;;;;7.83;5.10;;;12.20;99.90;;;;;;4990029;28;20197;-76
2022/06/04 02:42:02;;;;;;;6.70;5.37;;;12.10;99.90;;;;;;4992370;28;20288;-76
2022/06/04 02:45:02;;;;;;;7.73;5.40;;;12.00;99.90;;;;;;4987337;28;20197;-74
2022/06/04 02:47:55;;;;;;;8.00;5.90;;;12.00;99.90;;;;;;4990550;28;20610;-73
2022/06/04 02:50:52;;;;;;;9.83;6.37;;;11.90;99.90;;;;;;4991173;28;20232;-75
2022/06/04 02:53:39;;;;;;;10.20;6.33;;;11.90;99.90;;;;;;4997466;28;20302;-76
2022/06/04 02:56:27;;;;;;;8.27;5.87;;;11.90;99.90;;;;;;4993031;28;20197;-75
2022/06/04 02:59:15;;;;;;;8.27;6.07;;;11.90;99.90;;;;;;4993214;28;20193;-75
2022/06/04 03:08:51;;;;;;;10.60;6.13;;;11.90;99.90;;;;;;4966793;28;20189;-75
2022/06/04 03:12:29;;;;;;;;;;;;;;;;;;;;;
2022/06/04 03:15:45;;;;;;;8.33;6.27;;;11.90;99.90;;;;;;4951987;28;20309;-75
2022/06/04 03:19:10;;;;;;;;;;;;;;;;;;;;;
2022/06/04 03:22:01;;;;;;;9.93;6.57;;;11.70;99.90;;;;;;4949024;28;20224;-77
2022/06/04 03:25:08;;;;;;;8.33;6.53;;;11.70;99.90;;;;;;4947323;28;20189;-77
2022/06/04 03:28:01;;;;;;;11.17;6.80;;;11.70;99.90;;;;;;4936309;29;20197;-75
2022/06/04 03:30:48;;;;;;;13.10;7.30;;;11.70;99.90;;;;;;4939436;28;20230;-74
2022/06/04 03:33:47;;;;;;;8.80;6.70;;;11.70;99.90;;;;;;4942334;28;20226;-75
2022/06/04 03:37:03;;;;;;;12.63;6.57;;;11.70;99.90;;;;;;4947305;28;20182;-75
2022/06/04 03:43:55;;;;;;;10.60;6.67;;;11.60;99.90;;;;;;4953344;28;20188;-73
2022/06/04 03:47:06;;;;;;;8.67;7.17;;;11.70;99.90;;;;;;4938322;29;20185;-75
2022/06/04 03:50:21;;;;;;;9.20;6.47;;;11.60;99.90;;;;;;4945430;28;20182;-74
2022/06/04 03:53:20;;;;;;;10.33;6.53;;;11.50;99.90;;;;;;4932708;28;20335;-75
2022/06/04 03:56:24;;;;;;;11.83;6.90;;;11.60;99.90;;;;;;4941323;28;20241;-75
2022/06/04 03:59:49;;;;;;;8.97;6.30;;;11.50;99.90;;;;;;4933320;28;20200;-78
2022/06/04 04:02:56;;;;;;;12.87;6.90;;;11.50;99.90;;;;;;4939318;28;20309;-76
2022/06/04 04:05:57;;;;;;;9.23;7.03;;;11.50;99.90;;;;;;4940518;29;20259;-74
2022/06/04 04:08:42;;;;;;;11.27;7.37;;;11.50;99.90;;;;;;4937644;29;20700;-74
2022/06/04 04:11:27;;;;;;;13.07;7.93;;;11.50;99.90;;;;;;4940909;28;20245;-76
2022/06/04 04:14:12;;;;;;;11.63;8.50;;;11.50;99.90;;;;;;4940041;28;20197;-76
2022/06/04 04:16:56;;;;;;;13.73;7.70;;;11.50;99.90;;;;;;4942878;28;20317;-74
2022/06/04 04:19:40;;;;;;;15.17;8.13;;;11.50;99.90;;;;;;4943296;29;20187;-75
2022/06/04 04:22:25;;;;;;;12.13;8.03;;;11.40;99.90;;;;;;4936554;28;20228;-76
2022/06/04 04:25:11;;;;;;;13.50;8.37;;;11.40;99.90;;;;;;4939940;28;20202;-75
2022/06/04 04:27:57;;;;;;;12.33;7.90;;;11.40;99.90;;;;;;4937856;28;20202;-73
2022/06/04 04:30:42;;;;;;;12.00;7.90;;;11.40;99.90;;;;;;4936625;28;20205;-74
2022/06/04 04:33:27;;;;;;;10.73;8.03;;;11.40;99.90;;;;;;4931728;28;20214;-74
2022/06/04 04:36:12;;;;;;;13.67;8.23;;;11.40;99.90;;;;;;4939017;28;20193;-75
2022/06/04 04:38:57;;;;;;;14.57;8.23;;;11.50;99.90;;;;;;4941526;28;20190;-76
2022/06/04 04:41:55;;;;;;;12.87;8.17;;;11.60;99.90;;;;;;4938605;29;20281;-76
2022/06/04 04:45:09;;;;;;;12.10;7.90;;;11.60;99.90;;;;;;4947994;28;20232;-75
2022/06/04 04:59:08;;;;;;;;;;;;;;;;;;;;;
2022/06/04 05:02:14;;;;;;;12.90;8.23;;;11.70;99.90;;;;;;4957972;28;20218;-73
2022/06/04 05:05:04;;;;;;;13.17;8.10;;;11.70;99.90;;;;;;4932174;28;20210;-77
2022/06/04 05:07:48;;;;;;;13.67;7.97;;;11.80;99.90;;;;;;4937850;28;20253;-76
2022/06/04 05:10:35;;;;;;;12.00;8.03;;;11.80;99.90;;;;;;4936257;28;20194;-75
2022/06/04 05:13:19;;;;;;;12.87;8.90;;;11.90;99.90;;;;;;4931151;28;20209;-74
2022/06/04 05:16:04;;;;;;;17.03;8.47;;;11.90;99.90;;;;;;4945229;28;20197;-75
2022/06/04 05:19:02;;;;;;;13.30;8.30;;;11.90;99.90;;;;;;4933956;29;20202;-74
2022/06/04 05:21:50;;;;;;;14.37;8.80;;;12.00;99.90;;;;;;4936716;28;20234;-73
2022/06/04 05:24:36;;;;;;;12.17;8.20;;;12.10;99.90;;;;;;4942774;28;20198;-76
2022/06/04 05:27:20;;;;;;;14.30;8.07;;;12.10;99.90;;;;;;4923849;28;20222;-75
2022/06/04 05:30:05;;;;;;;11.30;8.07;;;12.10;99.90;;;;;;4950985;28;20233;-75
2022/06/04 05:32:50;;;;;;;11.63;8.93;;;12.10;99.90;;;;;;4933173;29;20290;-74
2022/06/04 05:35:34;;;;;;;16.43;8.70;;;12.20;99.90;;;;;;4925986;28;20187;-74
2022/06/04 05:38:18;;;;;;;13.00;8.90;;;12.30;99.90;;;;;;4935737;28;20701;-73
2022/06/04 05:41:06;;;;;;;14.83;9.23;;;12.30;99.90;;;;;;4931183;28;20221;-73
2022/06/04 05:43:53;;;;;;;14.00;8.73;;;12.30;99.90;;;;;;4934912;28;20190;-74
2022/06/04 05:46:42;;;;;;;10.47;8.20;;;12.40;99.90;;;;;;4935123;29;20257;-73
2022/06/04 05:49:26;;;;;;;16.13;8.50;;;12.50;99.90;;;;;;4938038;28;20253;-75
2022/06/04 05:52:11;;;;;;;12.00;8.90;;;12.60;99.90;;;;;;4932886;28;20234;-73
2022/06/04 05:54:55;;;;;;;12.60;9.23;;;12.70;99.90;;;;;;4935179;28;20214;-74
2022/06/04 05:57:39;;;;;;;11.30;8.23;;;12.70;99.90;;;;;;4936580;28;20209;-72
2022/06/04 06:00:23;;;;;;;15.00;9.03;;;12.70;99.90;;;;;;4940867;28;20265;-75
2022/06/04 06:03:08;;;;;;;16.43;9.03;;;12.80;99.90;;;;;;4928781;28;20261;-74
2022/06/04 06:05:53;;;;;;;11.00;8.60;;;12.90;99.90;;;;;;4926723;29;20219;-73
2022/06/04 06:08:38;;;;;;;16.83;8.20;;;13.00;99.90;;;;;;4933640;29;20229;-75
2022/06/04 06:11:23;;;;;;;15.40;8.83;;;13.00;99.90;;;;;;4942159;28;20218;-73
2022/06/04 06:14:08;;;;;;;11.43;8.27;;;13.00;99.90;;;;;;4953324;28;20226;-73
2022/06/04 06:16:52;;;;;;;14.47;8.97;;;13.10;99.90;;;;;;4935774;28;20526;-73
2022/06/04 06:19:36;;;;;;;11.30;8.97;;;13.20;99.90;;;;;;4944941;28;20205;-71
2022/06/04 06:22:22;;;;;;;11.67;8.07;;;13.20;99.90;;;;;;4935511;28;20222;-73
2022/06/04 06:25:07;;;;;;;13.23;8.70;;;13.30;99.90;;;;;;4949591;28;20207;-73
2022/06/04 06:27:51;;;;;;;13.83;9.60;;;13.40;99.90;;;;;;4945336;28;20205;-74
2022/06/04 06:30:35;;;;;;;10.43;8.30;;;13.40;99.90;;;;;;4949427;28;20202;-73
2022/06/04 06:33:20;;;;;;;12.33;8.60;;;13.50;99.90;;;;;;4927969;28;20258;-72
2022/06/04 06:36:07;;;;;;;14.00;8.47;;;13.50;99.90;;;;;;4933978;28;20182;-74
2022/06/04 06:38:52;;;;;;;15.40;8.70;;;13.60;99.90;;;;;;4947374;28;20193;-73
2022/06/04 06:41:36;;;;;;;13.53;9.23;;;13.70;99.90;;;;;;4943562;28;20221;-72
2022/06/04 06:44:22;;;;;;;11.47;8.20;;;13.80;99.90;;;;;;4949497;28;20329;-72
2022/06/04 06:47:07;;;;;;;13.93;7.87;;;13.80;99.90;;;;;;4941812;28;20246;-72
2022/06/04 06:49:52;;;;;;;12.93;8.57;;;13.80;99.90;;;;;;4933729;29;20548;-72
2022/06/04 06:52:36;;;;;;;14.27;9.03;;;13.90;99.90;;;;;;4932565;28;20229;-75
2022/06/04 06:55:20;;;;;;;13.60;9.20;;;14.00;99.90;;;;;;4957442;28;20185;-72
2022/06/04 06:58:05;;;;;;;12.87;8.97;;;14.10;99.90;;;;;;4941275;28;20258;-72
2022/06/04 07:00:49;;;;;;;12.87;8.87;;;14.10;99.90;;;;;;4929640;29;20221;-73
2022/06/04 07:03:36;;;;;;;16.20;9.03;;;14.20;99.90;;;;;;4936721;28;20221;-73
2022/06/04 07:06:48;;;;;;;12.97;8.47;;;14.20;99.90;;;;;;4941249;28;20544;-72
2022/06/04 07:09:36;;;;;;;13.50;8.67;;;14.20;99.90;;;;;;4949523;28;20242;-72
2022/06/04 07:12:20;;;;;;;10.50;8.07;;;14.20;99.90;;;;;;4937250;28;20229;-71
2022/06/04 07:15:04;;;;;;;10.23;8.10;;;14.30;99.90;;;;;;4946462;28;20195;-73
2022/06/04 07:17:48;;;;;;;18.47;9.23;;;14.30;99.90;;;;;;4935487;28;20266;-71
2022/06/04 07:20:33;;;;;;;14.30;8.87;;;14.40;99.90;;;;;;4939245;28;20197;-72
2022/06/04 07:23:18;;;;;;;16.43;8.27;;;14.40;99.90;;;;;;4932783;28;20202;-74
2022/06/04 07:26:03;;;;;;;13.90;8.77;;;14.50;99.90;;;;;;4936519;28;20332;-73
2022/06/04 07:28:48;;;;;;;14.50;8.03;;;14.60;99.90;;;;;;4938410;28;20552;-73
2022/06/04 07:31:32;;;;;;;10.47;8.03;;;14.70;99.90;;;;;;4935786;28;20712;-73
2022/06/04 07:34:16;;;;;;;12.43;8.47;;;14.70;99.90;;;;;;4939434;28;20629;-73
2022/06/04 07:37:01;;;;;;;13.57;8.40;;;14.80;99.90;;;;;;4935676;28;20206;-73
2022/06/04 07:39:45;;;;;;;13.67;8.53;;;14.90;99.90;;;;;;4932310;29;20229;-74
2022/06/04 07:42:29;;;;;;;11.53;8.23;;;14.90;99.90;;;;;;4938505;28;20281;-73
2022/06/04 07:45:13;;;;;;;12.30;8.43;;;14.90;99.90;;;;;;4934893;28;20740;-73
2022/06/04 07:47:57;;;;;;;9.47;7.10;;;15.00;99.90;;;;;;4942858;28;20201;-73
2022/06/04 07:50:42;;;;;;;12.33;7.70;;;15.00;99.90;;;;;;4938407;28;20216;-72
2022/06/04 07:53:26;;;;;;;11.47;8.03;;;15.20;99.90;;;;;;4951082;28;20217;-75
2022/06/04 07:56:13;;;;;;;9.93;7.40;;;15.30;99.90;;;;;;4945316;28;20198;-74
2022/06/04 07:58:58;;;;;;;11.27;7.50;;;15.30;99.90;;;;;;4936577;28;20210;-73
2022/06/04 08:01:43;;;;;;;15.17;8.50;;;15.40;99.90;;;;;;4944732;28;20262;-74
2022/06/04 08:04:27;;;;;;;12.63;7.83;;;15.60;99.90;;;;;;4933088;28;20257;-74
2022/06/04 08:07:12;;;;;;;12.00;7.90;;;15.60;99.90;;;;;;4934095;28;20685;-73
2022/06/04 08:09:56;;;;;;;12.63;7.30;;;15.60;99.90;;;;;;4938553;28;20261;-74
2022/06/04 08:12:42;;;;;;;11.13;7.10;;;15.60;99.90;;;;;;4949965;28;20245;-74
2022/06/04 08:15:27;;;;;;;8.87;7.00;;;15.70;99.90;;;;;;4941336;28;20190;-74
2022/06/04 08:18:11;;;;;;;9.80;7.10;;;15.80;99.90;;;;;;4937747;28;20254;-73
2022/06/04 08:20:55;;;;;;;12.63;7.77;;;15.80;99.90;;;;;;4953725;28;20241;-74
2022/06/04 08:23:40;;;;;;;12.03;6.93;;;15.90;99.90;;;;;;4947149;28;20358;-73
2022/06/04 08:26:24;;;;;;;10.03;6.70;;;16.00;99.90;;;;;;4953459;28;20218;-73
2022/06/04 08:29:09;;;;;;;8.77;7.03;;;16.00;99.90;;;;;;4939854;28;20205;-73
2022/06/04 08:31:53;;;;;;;11.50;6.63;;;16.10;99.90;;;;;;4933464;28;20273;-73
2022/06/04 08:34:37;;;;;;;9.00;7.03;;;16.20;99.90;;;;;;4951534;28;20268;-73
2022/06/04 08:37:21;;;;;;;9.77;7.07;;;16.20;99.90;;;;;;4937203;28;20193;-76
2022/06/04 08:40:06;;;;;;;10.77;6.10;;;16.20;99.90;;;;;;4937841;28;20571;-77
2022/06/04 08:43:15;;;;;;;13.20;6.73;;;16.20;99.90;;;;;;4934728;29;20198;-72
2022/06/04 08:46:02;;;;;;;9.17;6.70;;;16.30;99.90;;;;;;4947266;28;20631;-73
2022/06/04 08:48:47;;;;;;;7.00;6.13;;;16.50;99.90;;;;;;4933356;29;20205;-73
2022/06/04 08:51:31;;;;;;;9.27;6.83;;;16.50;99.90;;;;;;4947466;28;20726;-72
2022/06/04 08:57:32;;;;;;;13.93;6.67;;;16.60;99.90;;;;;;4948348;28;20245;-72
2022/06/04 09:00:24;;;;;;;9.07;5.37;;;16.70;99.90;;;;;;4954802;28;20250;-74
2022/06/04 09:03:26;;;;;;;9.40;5.70;;;16.80;99.90;;;;;;4937045;28;20229;-71
2022/06/04 09:06:47;;;;;;;7.67;5.43;;;16.90;99.90;;;;;;4948820;28;20551;-73
2022/06/04 09:09:33;;;;;;;10.93;6.87;;;17.00;99.90;;;;;;4942245;28;20189;-73
2022/06/04 09:12:29;;;;;;;7.70;6.50;;;17.10;99.90;;;;;;4953725;28;20290;-73
2022/06/04 09:15:27;;;;;;;8.87;5.97;;;17.10;99.90;;;;;;4931128;28;20189;-73
2022/06/04 09:18:24;;;;;;;9.83;6.47;;;17.20;99.90;;;;;;4933832;28;20181;-74
2022/06/04 09:21:10;;;;;;;8.47;6.50;;;17.30;99.90;;;;;;4940247;28;20580;-74
2022/06/04 09:23:55;;;;;;;8.63;6.33;;;17.40;99.90;;;;;;4942687;28;20198;-74
2022/06/04 09:26:50;;;;;;;9.77;6.00;;;17.50;99.90;;;;;;4935746;28;20193;-74
2022/06/04 09:29:59;;;;;;;8.17;5.50;;;17.50;99.90;;;;;;4938738;28;20186;-73
2022/06/04 09:32:55;;;;;;;8.27;5.93;;;17.60;99.90;;;;;;4933099;29;20229;-74
2022/06/04 09:35:40;;;;;;;7.73;6.10;;;17.80;99.90;;;;;;4947164;28;20233;-75
2022/06/04 09:38:28;;;;;;;10.07;6.10;;;17.80;99.90;;;;;;4952436;28;20211;-74
2022/06/04 09:41:21;;;;;;;8.77;6.17;;;17.80;99.90;;;;;;4949438;28;20249;-75
2022/06/04 09:44:15;;;;;;;10.33;6.17;;;17.90;99.90;;;;;;4928828;28;20194;-75
2022/06/04 09:47:06;;;;;;;8.40;5.73;;;17.90;99.90;;;;;;4928550;28;20241;-73
2022/06/04 09:50:00;;;;;;;8.63;5.43;;;18.00;99.90;;;;;;4947230;28;20686;-75
2022/06/04 09:52:55;;;;;;;7.93;4.70;;;18.10;99.90;;;;;;4940225;28;20229;-74
2022/06/04 09:55:47;;;;;;;9.03;5.63;;;18.10;99.90;;;;;;4940042;28;20201;-75
2022/06/04 09:58:37;;;;;;;5.30;4.70;;;18.10;99.90;;;;;;4943299;28;20186;-76
2022/06/04 10:01:23;;;;;;;7.27;4.83;;;18.20;99.90;;;;;;4932867;28;20230;-75
2022/06/04 10:04:14;;;;;;;6.47;4.37;;;18.30;99.90;;;;;;4937387;28;20202;-77
2022/06/04 10:07:05;;;;;;;6.27;4.83;;;18.40;99.90;;;;;;4949884;28;20275;-75
2022/06/04 10:09:58;;;;;;;7.07;5.30;;;18.40;99.90;;;;;;4926382;28;20211;-75
2022/06/04 10:15:49;;;;;;;7.43;4.33;;;18.50;99.90;;;;;;4963559;28;20181;-75
2022/06/04 10:18:35;;;;;;;8.17;5.17;;;18.60;99.90;;;;;;4927635;28;20238;-74
2022/06/04 10:21:23;;;;;;;6.20;4.60;;;18.70;99.90;;;;;;4947697;28;20211;-75
2022/06/04 10:24:29;;;;;;;7.93;4.93;;;18.80;99.90;;;;;;4945082;28;20182;-74
2022/06/04 10:27:25;;;;;;;6.37;3.60;;;18.80;99.90;;;;;;4927945;28;20190;-76
2022/06/04 10:30:28;;;;;;;5.53;3.97;;;18.80;99.90;;;;;;4944363;28;20189;-75
2022/06/04 10:33:31;;;;;;;4.93;4.23;;;18.80;99.90;;;;;;4932006;28;20225;-75
2022/06/04 10:36:36;;;;;;;8.07;4.37;;;18.80;99.90;;;;;;4940746;28;20189;-76
2022/06/04 10:39:32;;;;;;;6.50;4.30;;;18.90;99.90;;;;;;4946316;28;20262;-75
2022/06/04 10:42:38;;;;;;;6.60;4.00;;;19.00;99.90;;;;;;4940062;28;20306;-76
2022/06/04 10:45:43;;;;;;;4.83;4.10;;;19.10;99.90;;;;;;4938682;28;20741;-76
2022/06/04 10:48:35;;;;;;;7.07;4.22;;;19.10;99.90;;;;;;4949255;28;20241;-75
2022/06/04 10:51:52;;;;;;;4.60;3.90;;;19.20;99.90;;;;;;4954709;28;20265;-76
2022/06/04 10:54:48;;;;;;;7.22;3.55;;;19.30;99.90;;;;;;4931061;28;20269;-75
2022/06/04 10:57:54;;;;;;;7.10;4.18;;;19.40;99.90;;;;;;4936038;28;20230;-75
2022/06/04 11:00:51;;;;;;;5.40;3.75;;;19.40;99.90;;;;;;4946274;28;20279;-76
2022/06/04 11:03:56;;;;;;;4.05;3.55;;;19.50;99.90;;;;;;4931682;28;20285;-76
2022/06/04 11:06:54;;;;;;;4.55;3.83;;;19.60;99.90;;;;;;4948642;28;20217;-75
2022/06/04 11:09:41;;;;;;;6.47;3.85;;;19.60;99.90;;;;;;4931343;28;20185;-76
2022/06/04 11:12:34;;;;;;;11.13;4.82;;;19.60;99.90;;;;;;4946686;28;20303;-76
2022/06/04 11:15:42;;;;;;;5.75;4.38;;;19.70;99.90;;;;;;4938250;28;20186;-76
2022/06/04 11:18:57;;;;;;;7.18;4.80;;;19.90;99.90;;;;;;4930943;28;20219;-75
2022/06/04 11:21:56;;;;;;;5.78;4.60;;;20.00;99.90;;;;;;4930973;28;20290;-76
2022/06/04 11:25:24;;;;;;;5.63;4.03;;;20.00;99.90;;;;;;4943269;28;20242;-76
2022/06/04 11:28:12;;;;;;;5.13;4.43;;;20.00;99.90;;;;;;4947232;28;20258;-75
2022/06/04 11:31:37;;;;;;;9.07;4.75;;;20.10;99.90;;;;;;4941182;28;20218;-75
2022/06/04 11:34:43;;;;;;;5.80;4.40;;;20.00;99.90;;;;;;4954354;28;20566;-75
2022/06/04 11:38:14;;;;;;;11.77;5.10;;;19.90;99.90;;;;;;4944031;28;20206;-75
2022/06/04 11:41:21;;;;;;;9.45;5.15;;;19.90;99.90;;;;;;4939485;28;20269;-75
2022/06/04 11:44:11;;;;;;;4.35;3.90;;;19.90;99.90;;;;;;4935429;28;20209;-75
2022/06/04 11:47:20;;;;;;;7.63;4.93;;;19.90;99.90;;;;;;4951142;28;20202;-76
2022/06/04 11:50:23;;;;;;;8.52;5.03;;;20.00;99.90;;;;;;4942070;28;20230;-76
2022/06/04 11:53:35;;;;;;;6.07;4.03;;;20.00;99.90;;;;;;4936633;28;20214;-77
2022/06/04 11:56:59;;;;;;;7.15;4.03;;;20.20;99.90;;;;;;4941528;28;20218;-78
2022/06/04 11:59:56;;;;;;;6.15;3.90;;;20.30;99.90;;;;;;4938831;28;20234;-77
2022/06/04 12:02:54;;;;;;;6.03;4.10;;;20.30;99.90;;;;;;4940183;28;20221;-78
2022/06/04 12:05:50;;;;;;;8.13;4.30;;;20.40;99.90;;;;;;4942819;28;20544;-77
2022/06/04 12:08:41;;;;;;;5.28;4.00;;;20.40;99.90;;;;;;4940324;28;20198;-78
2022/06/04 12:11:54;;;;;;;5.32;4.78;;;20.50;99.90;;;;;;4929424;28;20270;-75
2022/06/04 12:14:47;;;;;;;6.28;3.90;;;20.60;99.90;;;;;;4880315;29;20297;-76
2022/06/04 12:17:48;;;;;;;5.75;4.00;;;20.50;99.90;;;;;;4935897;28;20553;-76
2022/06/04 12:27:24;;;;;;;5.15;3.65;;;20.70;99.90;;;;;;4874037;29;20208;-77
2022/06/04 12:30:17;;;;;;;2.97;2.78;;;20.80;99.90;;;;;;4863699;29;20204;-76
2022/06/04 12:33:10;;;;;;;5.50;3.75;;;20.90;99.90;;;;;;4936100;28;20229;-77
2022/06/04 12:35:57;;;;;;;5.05;3.17;;;21.00;99.90;;;;;;4935676;28;20201;-78
2022/06/04 12:38:45;;;;;;;5.72;3.28;;;21.00;99.90;;;;;;4932628;28;20226;-78
2022/06/04 12:41:41;;;;;;;3.83;3.40;;;20.90;99.90;;;;;;4932605;28;20266;-78
2022/06/04 12:44:29;;;;;;;6.88;3.28;;;20.90;99.90;;;;;;4930252;28;20190;-76
2022/06/04 12:47:25;;;;;;;4.75;3.45;;;20.90;99.90;;;;;;4946866;28;20717;-77
2022/06/04 12:50:21;;;;;;;3.55;3.03;;;20.90;99.90;;;;;;4947658;28;20267;-77
2022/06/04 12:53:16;;;;;;;8.73;2.88;;;20.90;99.90;;;;;;4934915;28;20241;-77
2022/06/04 12:56:06;;;;;;;7.72;3.42;;;21.00;99.90;;;;;;4934997;28;20297;-76
2022/06/04 12:58:53;;;;;;;5.10;2.80;;;21.10;99.90;;;;;;4937829;29;20211;-77
2022/06/04 13:01:38;;;;;;;7.65;2.90;;;21.30;99.90;;;;;;4933885;28;20224;-78
2022/06/04 13:04:34;;;;;;;4.82;2.97;;;21.40;99.90;;;;;;4932528;28;20222;-77
2022/06/04 13:07:25;;;;;;;2.83;2.63;;;21.40;99.90;;;;;;4940132;28;20205;-77
2022/06/04 13:10:31;;;;;;;4.05;2.47;;;21.50;99.90;;;;;;4931862;28;20683;-78
2022/06/04 13:13:45;;;;;;;2.97;2.20;;;21.50;99.90;;;;;;4932619;28;20249;-76
2022/06/04 13:16:31;;;;;;;2.90;2.60;;;21.50;99.90;;;;;;4950817;28;20198;-76
2022/06/04 13:19:31;;;;;;;7.38;2.92;;;21.50;99.90;;;;;;4948557;28;20661;-77
2022/06/04 13:22:37;;;;;;;2.97;2.20;;;21.70;99.90;;;;;;4935678;28;20221;-77
2022/06/04 13:25:34;;;;;;;4.68;2.88;;;21.70;99.90;;;;;;4931862;28;20202;-77
2022/06/04 13:28:35;;;;;;;3.60;2.38;;;21.70;99.90;;;;;;4936675;28;20210;-77
2022/06/04 13:31:29;;;;;;;3.20;2.17;;;21.70;99.90;;;;;;4936287;28;20225;-77
2022/06/04 13:34:23;;;;;;;6.22;2.30;;;21.80;99.90;;;;;;4949104;28;20330;-78
2022/06/04 13:37:24;;;;;;;2.78;2.38;;;21.80;99.90;;;;;;4947915;28;20287;-75
2022/06/04 13:40:27;;;;;;;3.03;2.45;;;21.80;99.90;;;;;;4931007;28;20229;-78
2022/06/04 13:43:12;;;;;;;3.42;2.60;;;21.80;99.90;;;;;;4942259;28;20209;-77
2022/06/04 13:46:26;;;;;;;2.47;2.25;;;21.70;99.90;;;;;;4946637;28;20279;-76
2022/06/04 13:49:19;;;;;;;5.43;2.50;;;21.80;99.90;;;;;;4928463;28;20303;-77
2022/06/04 13:52:27;;;;;;;4.13;2.40;;;21.90;99.90;;;;;;4941294;28;20229;-78
2022/06/04 13:55:30;;;;;;;4.35;2.78;;;21.80;99.90;;;;;;4931415;28;20209;-77
2022/06/04 13:58:28;;;;;;;2.97;2.53;;;21.80;99.90;;;;;;4929865;28;20230;-77
2022/06/04 14:01:21;;;;;;;4.63;2.65;;;21.80;99.90;;;;;;4947941;28;20230;-76
2022/06/04 14:07:15;;;;;;;3.40;2.45;;;21.90;99.90;;;;;;4946938;28;20226;-78
2022/06/04 14:09:59;;;;;;;2.58;2.38;;;21.90;99.90;;;;;;4935747;28;20194;-78
2022/06/04 14:12:58;;;;;;;2.90;2.55;;;22.00;99.90;;;;;;4935578;28;20249;-78
2022/06/04 14:16:19;;;;;;;3.13;2.58;;;22.00;99.90;;;;;;4944827;28;20202;-76
2022/06/04 14:19:29;;;;;;;2.78;2.00;;;22.10;99.90;;;;;;4944707;28;20210;-76
2022/06/04 14:22:33;;;;;;;3.53;2.58;;;22.10;99.90;;;;;;4947200;28;20269;-77
2022/06/04 14:25:44;;;;;;;4.78;2.78;;;22.30;99.90;;;;;;4940382;28;20194;-77
2022/06/04 14:28:49;;;;;;;5.20;2.95;;;22.30;99.90;;;;;;4946518;28;20246;-76
2022/06/04 14:31:41;;;;;;;3.75;2.65;;;22.30;99.90;;;;;;4932502;28;20583;-77
2022/06/04 14:34:45;;;;;;;3.40;2.72;;;22.30;99.90;;;;;;4933597;28;20190;-77
2022/06/04 14:37:29;;;;;;;6.05;2.97;;;22.40;99.90;;;;;;4946986;28;20193;-77
2022/06/04 14:40:16;;;;;;;3.17;2.45;;;22.30;99.90;;;;;;4930273;28;20310;-77
2022/06/04 14:43:29;;;;;;;2.85;2.65;;;22.40;99.90;;;;;;4948022;28;20253;-76
2022/06/04 14:46:51;;;;;;;4.68;2.45;;;22.40;99.90;;;;;;4948961;28;20310;-77
2022/06/04 14:49:50;;;;;;;3.53;3.05;;;22.40;99.90;;;;;;4944947;28;20254;-77
2022/06/04 14:52:35;;;;;;;4.20;2.40;;;22.50;99.90;;;;;;4947584;28;20218;-77
2022/06/04 14:55:58;;;;;;;4.03;2.65;;;22.60;99.90;;;;;;4936052;28;20201;-77
2022/06/04 14:59:20;;;;;;;3.13;2.50;;;22.70;99.90;;;;;;4947984;28;20190;-77
2022/06/04 15:02:23;;;;;;;4.43;2.28;;;22.80;99.90;;;;;;4934043;28;20221;-77
2022/06/04 15:05:24;;;;;;;2.60;2.30;;;22.80;99.90;;;;;;4944920;28;20587;-77
2022/06/04 15:08:18;;;;;;;3.28;2.50;;;22.80;99.90;;;;;;4947825;28;20200;-78
2022/06/04 15:11:11;;;;;;;5.35;3.13;;;23.00;99.90;;;;;;4948531;28;20261;-77
2022/06/04 15:14:26;;;;;;;2.90;2.53;;;22.90;99.90;;;;;;4938507;28;20547;-78
2022/06/04 15:17:32;;;;;;;4.88;2.20;;;22.90;99.90;;;;;;4934123;28;20190;-76
2022/06/04 15:20:47;;;;;;;2.95;2.50;;;23.00;99.90;;;;;;4946567;28;20275;-76
2022/06/04 15:23:47;;;;;;;3.35;2.78;;;23.00;99.90;;;;;;4954213;28;20260;-76
2022/06/04 15:26:49;;;;;;;4.10;2.83;;;23.00;99.90;;;;;;4938970;28;20257;-76
2022/06/04 15:36:19;;;;;;;5.28;2.70;;;23.10;99.90;;;;;;4956159;28;20213;-78
2022/06/04 15:39:24;;;;;;;3.83;2.58;;;23.10;99.90;;;;;;4959928;28;20242;-79
2022/06/04 15:42:19;;;;;;;3.53;2.40;;;23.10;99.90;;;;;;4934320;28;20309;-78
2022/06/04 15:45:16;;;;;;;3.17;2.85;;;23.20;99.90;;;;;;4943901;28;20718;-78
2022/06/04 15:48:06;;;;;;;2.97;2.40;;;23.20;99.90;;;;;;4949104;28;20245;-78
2022/06/04 15:57:39;;;;;;;3.78;2.25;;;23.30;99.90;;;;;;4953070;28;20665;-78
2022/06/04 16:00:27;;;;;;;2.92;2.13;;;23.20;99.90;;;;;;4937833;28;20286;-78
2022/06/04 16:03:33;;;;;;;2.40;2.20;;;23.20;99.90;;;;;;4942815;28;20798;-77
2022/06/04 16:06:23;;;;;;;3.88;2.30;;;23.30;99.90;;;;;;4936103;28;20246;-77